Time;durP1;ratioP1;P1;durP2;ratioP2;P2;SDS_P1;SDS_P2;PMS_P1;PMS_P2;Temp;Humidity;BMP_temperature;BMP_pressure;BME280_temperature;BME280_humidity;BME280_pressure;Samples;Min_cycle;Max_cycle;Signal;HPM_P1;HPM_P2
2021/05/13 00:00:41;;;;;;;2.70;1.73;;;;;;;14.97;54.82;98143.00;5111493;28;20027;-85
2021/05/13 00:03:06;;;;;;;1.90;1.80;;;;;;;14.97;54.42;98148.38;5112595;28;20143;-87
2021/05/13 00:05:32;;;;;;;2.70;1.83;;;;;;;14.98;54.18;98149.97;5111521;28;20027;-90
2021/05/13 00:07:57;;;;;;;2.10;1.90;;;;;;;15.00;54.44;98149.63;5112299;28;20114;-91
2021/05/13 00:10:24;;;;;;;1.70;1.60;;;;;;;15.00;54.29;98149.63;5111672;28;20042;-86
2021/05/13 00:12:55;;;;;;;1.77;1.67;;;;;;;14.99;54.39;98148.84;5112372;28;20027;-87
2021/05/13 00:15:25;;;;;;;2.90;1.73;;;;;;;15.00;54.37;98147.75;5112172;28;20028;-82
2021/05/13 00:17:51;;;;;;;1.77;1.52;;;;;;;14.97;54.52;98150.28;5111585;28;20023;-92
2021/05/13 00:20:21;;;;;;;2.40;1.45;;;;;;;14.91;54.55;98144.31;5112312;28;20024;-89
2021/05/13 00:22:47;;;;;;;2.63;1.92;;;;;;;14.86;54.68;98145.28;5111187;28;20353;-82
2021/05/13 00:25:13;;;;;;;3.08;1.60;;;;;;;14.78;54.90;98132.69;5112144;28;20023;-92
2021/05/13 00:27:38;;;;;;;2.03;1.80;;;;;;;14.73;54.69;98141.72;5114435;28;20112;-90
2021/05/13 00:30:06;;;;;;;1.60;1.50;;;;;;;14.75;54.79;98144.09;5111114;28;20474;-91
2021/05/13 00:32:32;;;;;;;1.55;1.40;;;;;;;14.72;54.91;98136.66;5110985;28;20130;-90
2021/05/13 00:34:58;;;;;;;1.80;1.70;;;;;;;14.73;54.89;98139.03;5111642;28;20027;-88
2021/05/13 00:37:23;;;;;;;1.73;1.60;;;;;;;14.75;54.68;98148.69;5111189;28;20456;-88
2021/05/13 00:39:49;;;;;;;1.88;1.30;;;;;;;14.75;54.84;98143.31;5113722;28;20028;-88
2021/05/13 00:42:15;;;;;;;1.45;1.35;;;;;;;14.75;54.62;98140.63;5111618;28;20031;-88
2021/05/13 00:44:45;;;;;;;2.80;1.80;;;;;;;14.73;54.67;98130.97;5111640;28;20024;-88
2021/05/13 00:47:12;;;;;;;3.58;1.65;;;;;;;14.79;54.74;98136.16;5109580;28;20112;-90
2021/05/13 00:49:38;;;;;;;3.63;1.60;;;;;;;14.80;54.84;98143.13;5112617;28;20085;-90
2021/05/13 00:52:07;;;;;;;1.45;1.35;;;;;;;14.80;54.67;98143.88;5112362;28;20386;-87
2021/05/13 00:54:32;;;;;;;2.30;1.67;;;;;;;14.80;54.46;98138.50;5110918;28;20028;-86
2021/05/13 00:56:58;;;;;;;1.63;1.52;;;;;;;14.78;54.85;98142.63;5110172;28;20037;-86
2021/05/13 00:59:26;;;;;;;1.83;1.58;;;;;;;14.76;54.99;98142.97;5110804;28;20394;-89
2021/05/13 01:01:51;;;;;;;1.33;1.23;;;;;;;14.71;55.04;98135.09;5110468;28;20028;-89
2021/05/13 01:04:18;;;;;;;2.15;1.95;;;;;;;14.70;55.07;98141.59;5111367;28;20390;-89
2021/05/13 01:06:46;;;;;;;1.67;1.50;;;;;;;14.70;55.15;98146.97;5110597;28;20027;-89
2021/05/13 01:09:12;;;;;;;1.88;1.42;;;;;;;14.61;55.42;98128.16;5110886;28;20119;-88
2021/05/13 01:11:42;;;;;;;1.63;1.52;;;;;;;14.55;55.37;98130.22;5110271;28;20106;-88
2021/05/13 01:16:49;;;;;;;2.33;1.92;;;;;;;14.52;55.83;98135.47;5112135;27;20402;-86
2021/05/13 01:19:16;;;;;;;;;;;;;;;14.48;55.81;98138.03;5110944;28;20023;-90
2021/05/13 01:21:42;;;;;;;1.85;1.75;;;;;;;14.44;55.83;98134.41;5110272;28;19911;-86
2021/05/13 01:24:08;;;;;;;3.92;3.10;;;;;;;14.39;55.89;98138.06;5114447;28;20100;-89
2021/05/13 01:26:34;;;;;;;2.50;1.60;;;;;;;14.40;56.16;98131.59;5110192;28;20096;-85
2021/05/13 01:29:01;;;;;;;1.67;1.58;;;;;;;14.39;56.04;98135.38;5110359;28;20031;-85
2021/05/13 01:31:27;;;;;;;2.67;2.28;;;;;;;14.39;56.38;98135.38;5122436;27;20127;-85
2021/05/13 01:33:52;;;;;;;4.75;1.77;;;;;;;14.40;56.19;98130.78;5110808;28;20075;-88
2021/05/13 01:36:18;;;;;;;2.08;1.80;;;;;;;14.40;56.29;98126.19;5111043;28;20034;-90
2021/05/13 01:38:43;;;;;;;5.30;1.77;;;;;;;14.36;55.93;98124.47;5111224;28;20024;-88
2021/05/13 01:41:09;;;;;;;2.47;2.28;;;;;;;14.36;56.43;98125.25;5109751;28;20026;-87
2021/05/13 01:43:35;;;;;;;1.73;1.63;;;;;;;14.37;56.12;98129.53;5109839;28;20448;-81
2021/05/13 01:46:01;;;;;;;2.45;2.25;;;;;;;14.38;56.55;98125.72;5109722;28;20035;-82
2021/05/13 01:48:27;;;;;;;2.13;1.75;;;;;;;14.39;56.70;98119.25;5110636;28;20030;-85
2021/05/13 01:50:53;;;;;;;2.78;2.47;;;;;;;14.41;56.40;98127.78;5114100;28;20039;-93
2021/05/13 01:53:19;;;;;;;2.13;1.92;;;;;;;14.41;56.45;98125.09;5110305;28;20036;-89
2021/05/13 01:55:45;;;;;;;1.67;1.58;;;;;;;14.40;56.41;98125.41;5110268;28;20114;-87
2021/05/13 01:58:10;;;;;;;2.33;2.03;;;;;;;14.37;56.58;98126.84;5110098;28;20020;-87
2021/05/13 02:00:37;;;;;;;2.45;2.05;;;;;;;14.34;56.43;98129.38;5109903;28;20019;-90
2021/05/13 02:03:04;;;;;;;2.08;1.98;;;;;;;14.26;56.92;98122.94;5110077;28;20028;-88
2021/05/13 02:05:30;;;;;;;4.25;2.33;;;;;;;14.24;56.88;98123.25;5110355;28;20023;-89
2021/05/13 02:07:56;;;;;;;3.17;2.42;;;;;;;14.23;57.09;98123.56;5109812;28;20027;-86
2021/05/13 02:10:21;;;;;;;5.07;2.30;;;;;;;14.23;57.26;98128.94;5110116;28;20019;-88
2021/05/13 02:12:48;;;;;;;3.17;2.47;;;;;;;14.20;56.95;98125.00;5109227;28;20386;-86
2021/05/13 02:15:16;;;;;;;2.42;2.22;;;;;;;14.22;56.95;98125.47;5109028;28;20032;-88
2021/05/13 02:17:42;;;;;;;1.83;1.73;;;;;;;14.24;57.01;98125.94;5098530;28;20115;-89
2021/05/13 02:20:15;;;;;;;3.03;2.35;;;;;;;14.24;57.02;98125.94;5110895;28;20062;-86
2021/05/13 02:22:40;;;;;;;7.07;2.25;;;;;;;14.28;56.63;98130.66;5109119;28;20034;-92
2021/05/13 02:25:07;;;;;;;2.72;2.47;;;;;;;14.28;57.04;98134.16;5109712;28;20051;-89
2021/05/13 02:27:33;;;;;;;3.20;2.22;;;;;;;14.30;56.77;98133.84;5110646;28;20244;-89
2021/05/13 02:29:58;;;;;;;4.70;2.38;;;;;;;14.26;56.84;98136.38;5113949;28;20038;-89
2021/05/13 02:32:24;;;;;;;2.42;2.22;;;;;;;14.30;56.99;98147.28;5114121;28;20085;-88
2021/05/13 02:34:49;;;;;;;2.90;2.22;;;;;;;14.27;57.06;98137.97;5113282;28;20092;-88
2021/05/13 02:37:15;;;;;;;5.18;3.03;;;;;;;14.23;56.89;98140.50;5114038;28;20035;-89
2021/05/13 02:39:40;;;;;;;4.13;2.88;;;;;;;14.18;56.98;98137.19;5113078;28;20035;-87
2021/05/13 02:42:06;;;;;;;3.60;2.45;;;;;;;14.18;57.30;98137.97;5113331;28;20027;-94
2021/05/13 02:44:32;;;;;;;2.67;2.33;;;;;;;14.19;57.51;98144.16;5114524;28;20038;-91
2021/05/13 02:46:57;;;;;;;4.18;2.72;;;;;;;14.17;57.55;98147.19;5113597;28;20027;-90
2021/05/13 02:49:23;;;;;;;3.30;2.72;;;;;;;14.12;57.58;98141.16;5113203;28;20155;-87
2021/05/13 02:51:48;;;;;;;2.60;2.38;;;;;;;14.12;57.92;98146.56;5113130;28;20126;-87
2021/05/13 02:54:14;;;;;;;3.58;2.55;;;;;;;14.09;57.94;98148.00;5113504;28;20035;-86
2021/05/13 02:56:39;;;;;;;3.00;2.80;;;;;;;14.11;58.44;98147.66;5112980;28;20028;-86
2021/05/13 02:59:05;;;;;;;3.20;2.90;;;;;;;14.12;58.33;98157.31;5112908;28;20024;-89
2021/05/13 03:01:30;;;;;;;5.22;3.33;;;;;;;14.11;58.56;98156.53;5112934;28;20028;-88
2021/05/13 03:03:58;;;;;;;5.88;3.15;;;;;;;14.08;58.74;98157.94;5113100;28;20023;-89
2021/05/13 03:06:25;;;;;;;3.90;3.50;;;;;;;14.01;59.21;98157.66;5113595;28;20023;-90
2021/05/13 03:08:53;;;;;;;4.90;2.95;;;;;;;13.98;59.33;98152.13;5113058;28;20027;-90
2021/05/13 03:11:19;;;;;;;4.53;3.60;;;;;;;13.93;59.71;98150.41;5113145;28;20055;-88
2021/05/13 03:13:45;;;;;;;4.72;3.40;;;;;;;13.89;59.90;98161.00;5112861;28;20063;-88
2021/05/13 03:16:11;;;;;;;4.75;3.50;;;;;;;13.90;59.90;98157.22;5112487;28;20035;-89
2021/05/13 03:18:36;;;;;;;4.55;3.40;;;;;;;13.90;59.86;98157.22;5113560;28;20024;-88
2021/05/13 03:21:19;;;;;;;5.78;3.50;;;;;;;13.91;59.90;98150.72;5112200;28;20024;-87
2021/05/13 03:26:16;;;;;;;3.17;2.95;;;;;;;13.88;59.93;98153.28;5114849;28;20034;-84
2021/05/13 03:28:42;;;;;;;3.70;2.97;;;;;;;13.88;59.94;98143.28;5112945;28;20445;-84
2021/05/13 03:31:07;;;;;;;3.10;2.65;;;;;;;13.88;59.30;98153.28;5112485;28;20027;-87
2021/05/13 03:33:33;;;;;;;3.97;2.88;;;;;;;13.89;59.63;98161.00;5112223;28;20394;-84
2021/05/13 03:35:58;;;;;;;4.28;3.30;;;;;;;13.90;59.32;98170.66;5112345;28;20019;-84
2021/05/13 03:38:24;;;;;;;3.85;2.80;;;;;;;13.95;59.33;98163.50;5112024;28;20466;-86
2021/05/13 03:40:49;;;;;;;3.65;2.75;;;;;;;13.97;59.03;98161.31;5110371;28;20024;-87
2021/05/13 03:43:15;;;;;;;3.83;2.95;;;;;;;13.92;58.98;98175.69;5112448;28;20019;-88
2021/05/13 03:45:41;;;;;;;6.72;3.70;;;;;;;13.95;59.02;98168.88;5112693;28;20027;-86
2021/05/13 03:48:07;;;;;;;3.03;2.30;;;;;;;13.97;59.00;98164.00;5112379;28;20394;-86
2021/05/13 03:50:35;;;;;;;6.18;2.63;;;;;;;13.93;58.57;98155.78;5111569;28;20026;-87
2021/05/13 03:53:02;;;;;;;4.07;3.78;;;;;;;13.96;58.71;98162.41;5112111;28;20035;-84
2021/05/13 03:55:27;;;;;;;2.75;2.33;;;;;;;13.93;58.50;98155.78;5111837;28;20031;-87
2021/05/13 03:57:55;;;;;;;3.38;2.47;;;;;;;13.92;58.83;98162.25;5111824;28;20023;-84
2021/05/13 04:00:28;;;;;;;5.97;2.45;;;;;;;13.90;58.78;98165.28;5112314;28;20027;-83
2021/05/13 04:02:53;;;;;;;4.57;2.75;;;;;;;13.88;58.68;98162.09;5114638;28;20474;-86
2021/05/13 04:05:19;;;;;;;2.58;2.35;;;;;;;13.87;58.94;98179.34;5113451;28;20046;-86
2021/05/13 04:07:45;;;;;;;4.00;2.72;;;;;;;13.88;58.66;98178.22;5115987;28;20038;-88
2021/05/13 04:10:11;;;;;;;2.22;1.92;;;;;;;13.89;58.32;98182.50;5116943;28;20055;-86
2021/05/13 04:12:38;;;;;;;3.35;2.40;;;;;;;13.79;58.54;98179.34;5114561;28;20026;-88
2021/05/13 04:15:08;;;;;;;4.57;2.80;;;;;;;13.78;58.49;98186.63;5113833;28;20019;-87
2021/05/13 04:17:35;;;;;;;5.72;2.42;;;;;;;13.76;58.27;98186.16;5116084;28;20051;-80
2021/05/13 04:20:00;;;;;;;4.53;2.97;;;;;;;13.76;58.51;98188.84;5112574;28;20165;-80
2021/05/13 04:22:26;;;;;;;2.83;2.53;;;;;;;13.75;58.36;98196.09;5113425;28;20523;-85
2021/05/13 04:24:51;;;;;;;3.35;2.58;;;;;;;13.80;58.62;98189.78;5112187;28;20367;-87
2021/05/13 04:27:17;;;;;;;2.58;2.38;;;;;;;13.80;58.37;98183.63;5112334;28;20019;-84
2021/05/13 04:29:42;;;;;;;4.78;2.83;;;;;;;13.81;57.86;98186.00;5110539;28;20089;-80
2021/05/13 04:32:09;;;;;;;5.53;2.80;;;;;;;13.83;58.34;98194.53;5111292;28;20048;-80
2021/05/13 04:34:34;;;;;;;5.97;2.47;;;;;;;13.86;58.06;98185.81;5111567;28;20020;-80
2021/05/13 04:36:59;;;;;;;4.72;2.63;;;;;;;13.93;58.36;98188.81;5111246;28;20038;-80
2021/05/13 04:39:25;;;;;;;3.28;2.90;;;;;;;14.03;57.54;98198.44;5110959;28;20022;-80
2021/05/13 04:41:51;;;;;;;4.38;2.50;;;;;;;14.24;57.61;98206.63;5111239;28;20446;-81
2021/05/13 04:44:17;;;;;;;2.97;2.50;;;;;;;14.43;56.81;98196.59;5111414;28;20020;-81
2021/05/13 04:46:43;;;;;;;3.38;2.90;;;;;;;14.66;56.41;98189.88;5111209;28;20028;-80
2021/05/13 04:51:35;;;;;;;5.70;3.38;;;;;;;15.04;55.22;98201.72;5112150;28;20026;-80
2021/05/13 04:54:01;;;;;;;4.68;2.92;;;;;;;15.27;54.87;98204.91;5111025;28;20015;-80
2021/05/13 04:56:27;;;;;;;5.60;2.90;;;;;;;15.48;54.29;98199.50;5111337;28;20015;-81
2021/05/13 04:58:53;;;;;;;3.63;3.25;;;;;;;15.68;54.09;98203.31;5111939;28;20213;-81
2021/05/13 05:01:20;;;;;;;2.92;2.72;;;;;;;15.86;53.34;98205.88;5111165;28;20034;-81
2021/05/13 05:03:46;;;;;;;13.45;7.40;;;;;;;15.98;52.92;98199.75;5111158;28;20039;-81
2021/05/13 05:06:11;;;;;;;6.00;4.80;;;;;;;16.09;52.59;98198.19;5110994;28;20068;-80
2021/05/13 05:08:38;;;;;;;4.28;3.42;;;;;;;16.13;52.16;98196.41;5110667;28;20061;-81
2021/05/13 05:11:03;;;;;;;6.45;3.85;;;;;;;16.32;52.28;98200.50;5110765;28;20071;-80
2021/05/13 05:13:29;;;;;;;6.78;4.03;;;;;;;16.44;51.82;98203.22;5110985;28;20062;-79
2021/05/13 05:15:56;;;;;;;12.52;4.00;;;;;;;16.55;51.43;98202.78;5111181;28;20038;-80
2021/05/13 05:18:22;;;;;;;8.48;4.60;;;;;;;16.66;50.90;98195.78;5111015;28;20023;-79
2021/05/13 05:20:49;;;;;;;5.53;4.15;;;;;;;16.78;50.91;98203.13;5111266;28;20032;-79
2021/05/13 05:23:15;;;;;;;4.20;3.53;;;;;;;16.99;51.63;98202.25;5110451;28;20019;-79
2021/05/13 05:25:41;;;;;;;4.60;3.58;;;;;;;17.24;50.32;98203.00;5110792;28;20096;-79
2021/05/13 05:28:07;;;;;;;4.45;3.28;;;;;;;17.53;50.27;98196.50;5110110;28;20072;-79
2021/05/13 05:30:33;;;;;;;3.55;2.60;;;;;;;17.84;49.51;98200.44;5110705;28;20045;-80
2021/05/13 05:33:03;;;;;;;3.08;2.85;;;;;;;18.11;48.66;98205.41;5110032;28;20066;-80
2021/05/13 05:35:28;;;;;;;5.85;3.60;;;;;;;18.29;47.61;98201.25;5110422;28;20036;-79
2021/05/13 05:37:55;;;;;;;3.78;3.03;;;;;;;18.39;47.80;98202.66;5109763;28;20019;-79
2021/05/13 05:40:21;;;;;;;5.80;3.25;;;;;;;18.60;47.50;98205.09;5110513;28;20016;-80
2021/05/13 05:42:47;;;;;;;7.57;3.00;;;;;;;18.73;47.15;98205.78;5110346;28;20054;-79
2021/05/13 05:45:14;;;;;;;7.07;3.05;;;;;;;18.86;47.02;98201.84;5110211;28;20106;-79
2021/05/13 05:47:39;;;;;;;7.15;3.13;;;;;;;19.06;46.69;98204.63;5110200;28;20027;-80
2021/05/13 05:50:05;;;;;;;4.20;3.03;;;;;;;19.22;45.92;98209.25;5110023;28;20015;-79
2021/05/13 05:52:30;;;;;;;4.38;3.55;;;;;;;19.30;45.87;98205.53;5110294;28;20046;-79
2021/05/13 05:54:56;;;;;;;3.63;3.17;;;;;;;19.11;46.21;98212.47;5110042;28;20011;-79
2021/05/13 05:57:22;;;;;;;4.65;2.90;;;;;;;19.12;46.53;98224.13;5110160;28;20020;-79
2021/05/13 05:59:47;;;;;;;4.53;4.10;;;;;;;19.10;46.28;98227.16;5110114;28;20557;-80
2021/05/13 06:02:13;;;;;;;7.40;3.85;;;;;;;19.09;46.58;98225.63;5109979;28;20032;-80
2021/05/13 06:04:38;;;;;;;9.27;4.10;;;;;;;19.13;46.47;98228.41;5109630;28;20022;-80
2021/05/13 06:07:04;;;;;;;7.38;4.50;;;;;;;19.11;46.55;98233.38;5109603;28;20038;-80
2021/05/13 06:09:29;;;;;;;5.80;4.00;;;;;;;19.11;46.80;98236.09;5110165;28;20019;-80
2021/05/13 06:11:54;;;;;;;7.03;4.40;;;;;;;19.20;47.04;98231.28;5110239;28;20031;-80
2021/05/13 06:14:20;;;;;;;6.38;4.00;;;;;;;19.27;46.44;98225.22;5109911;28;20027;-80
2021/05/13 06:16:46;;;;;;;5.72;3.97;;;;;;;19.23;46.13;98216.22;5110127;28;20452;-80
2021/05/13 06:19:11;;;;;;;4.63;4.00;;;;;;;19.20;46.43;98215.03;5109658;28;20079;-80
2021/05/13 06:21:39;;;;;;;7.07;5.00;;;;;;;19.27;46.46;98214.38;5110127;28;20024;-80
2021/05/13 06:24:08;;;;;;;7.30;5.00;;;;;;;19.25;46.60;98198.47;5109597;28;20022;-80
2021/05/13 06:26:34;;;;;;;4.63;4.22;;;;;;;19.25;46.04;98203.09;5109931;28;20131;-80
2021/05/13 06:28:59;;;;;;;8.25;4.95;;;;;;;19.22;46.11;98190.25;5109619;28;20457;-80
2021/05/13 06:31:25;;;;;;;5.63;4.97;;;;;;;19.22;45.93;98196.47;5109955;28;20462;-80
2021/05/13 06:33:50;;;;;;;9.73;4.72;;;;;;;19.28;44.04;98197.75;5109581;28;20039;-80
2021/05/13 06:36:16;;;;;;;8.35;4.55;;;;;;;19.44;43.74;98199.63;5109771;28;20175;-80
2021/05/13 06:38:42;;;;;;;5.57;4.35;;;;;;;19.53;43.35;98213.78;5109819;28;20382;-80
2021/05/13 06:41:09;;;;;;;4.15;3.78;;;;;;;19.60;42.72;98210.41;5109693;28;20494;-80
2021/05/13 06:43:35;;;;;;;5.00;4.00;;;;;;;19.68;42.66;98212.91;5109877;28;20131;-80
2021/05/13 06:46:01;;;;;;;5.50;4.38;;;;;;;19.66;42.27;98214.41;5109493;28;20020;-80
2021/05/13 06:48:26;;;;;;;4.55;4.07;;;;;;;19.55;42.17;98206.03;5109792;28;20031;-80
2021/05/13 06:50:52;;;;;;;12.02;6.95;;;;;;;19.43;43.28;98212.41;5109862;28;20295;-80
2021/05/13 06:53:17;;;;;;;8.85;5.13;;;;;;;19.38;43.65;98207.25;5109504;28;20447;-80
2021/05/13 06:55:43;;;;;;;10.25;4.53;;;;;;;19.26;43.82;98201.97;5109699;28;20048;-80
2021/05/13 06:58:08;;;;;;;8.20;4.38;;;;;;;19.10;44.37;98215.56;5109561;28;20023;-80
2021/05/13 07:00:34;;;;;;;7.53;3.97;;;;;;;18.97;44.35;98212.97;5109829;28;20137;-80
2021/05/13 07:02:59;;;;;;;8.88;4.97;;;;;;;18.88;45.02;98198.78;5109586;28;20046;-80
2021/05/13 07:05:26;;;;;;;8.68;4.55;;;;;;;18.82;44.39;98189.34;5111326;28;20374;-80
2021/05/13 07:07:51;;;;;;;6.97;4.10;;;;;;;18.72;44.33;98188.75;5109777;28;20089;-80
2021/05/13 07:10:16;;;;;;;10.00;4.30;;;;;;;18.72;45.11;98187.97;5110504;28;20470;-80
2021/05/13 07:12:42;;;;;;;9.13;4.35;;;;;;;18.80;45.62;98194.34;5109665;28;20023;-81
2021/05/13 07:15:08;;;;;;;4.43;3.97;;;;;;;18.91;44.65;98189.16;5111260;28;20123;-81
2021/05/13 07:17:33;;;;;;;7.30;4.28;;;;;;;19.01;44.79;98194.06;5113247;28;20019;-80
2021/05/13 07:19:59;;;;;;;6.80;4.57;;;;;;;19.09;44.14;98193.09;5113029;28;20434;-79
2021/05/13 07:22:24;;;;;;;7.53;5.38;;;;;;;19.20;43.84;98190.63;5113261;28;20030;-79
2021/05/13 07:24:50;;;;;;;7.43;5.32;;;;;;;19.32;43.81;98185.06;5113215;28;20028;-79
2021/05/13 07:27:16;;;;;;;7.50;4.78;;;;;;;19.51;44.51;98181.56;5112909;28;20023;-79
2021/05/13 07:29:41;;;;;;;5.47;4.97;;;;;;;19.63;43.70;98180.66;5113064;28;20026;-79
2021/05/13 07:32:07;;;;;;;6.20;5.60;;;;;;;19.76;43.64;98181.28;5112497;28;20043;-80
2021/05/13 07:34:33;;;;;;;5.78;5.18;;;;;;;19.90;43.16;98175.38;5112688;28;20024;-81
2021/05/13 07:36:59;;;;;;;6.80;4.35;;;;;;;20.06;42.72;98183.41;5112791;28;20024;-80
2021/05/13 07:39:25;;;;;;;17.67;5.47;;;;;;;20.26;42.30;98188.78;5112376;28;20026;-81
2021/05/13 07:41:51;;;;;;;7.30;4.53;;;;;;;20.44;42.01;98192.59;5112717;28;20027;-80
2021/05/13 07:44:16;;;;;;;7.47;4.53;;;;;;;20.47;41.07;98183.72;5112676;28;20027;-79
2021/05/13 07:46:42;;;;;;;5.90;4.40;;;;;;;20.52;40.72;98189.97;5112789;28;20273;-80
2021/05/13 07:49:08;;;;;;;9.68;5.28;;;;;;;20.59;40.64;98187.38;5112606;28;20076;-79
2021/05/13 07:51:34;;;;;;;9.95;4.43;;;;;;;20.67;40.77;98186.34;5112720;28;20386;-79
2021/05/13 07:54:00;;;;;;;7.55;4.97;;;;;;;20.83;40.92;98185.47;5112659;28;20039;-79
2021/05/13 07:56:26;;;;;;;6.30;4.65;;;;;;;20.94;40.27;98186.41;5112590;28;20057;-79
2021/05/13 07:58:51;;;;;;;7.65;4.03;;;;;;;20.95;39.93;98177.88;5112502;28;20023;-80
2021/05/13 08:01:17;;;;;;;5.68;3.80;;;;;;;20.95;39.53;98188.75;5112238;28;20481;-79
2021/05/13 08:03:42;;;;;;;4.82;4.20;;;;;;;20.89;40.67;98184.00;5112460;28;20235;-79
2021/05/13 08:06:08;;;;;;;3.65;3.35;;;;;;;20.91;41.16;98187.13;5112130;28;20481;-80
2021/05/13 08:08:33;;;;;;;6.40;3.50;;;;;;;20.86;41.01;98177.38;5112377;28;20027;-80
2021/05/13 08:10:59;;;;;;;4.80;3.58;;;;;;;20.82;40.59;98181.94;5112203;28;20030;-79
2021/05/13 08:13:24;;;;;;;7.43;4.47;;;;;;;20.79;40.67;98183.47;5111921;28;20543;-80
2021/05/13 08:15:50;;;;;;;6.80;3.58;;;;;;;20.73;40.66;98178.72;5112196;28;20457;-79
2021/05/13 08:18:16;;;;;;;2.85;2.63;;;;;;;20.72;41.15;98179.88;5112090;28;20378;-79
2021/05/13 08:20:41;;;;;;;4.05;2.85;;;;;;;20.69;40.53;98169.69;5112003;28;20019;-80
2021/05/13 08:23:07;;;;;;;4.90;3.42;;;;;;;20.71;40.85;98173.59;5111805;28;20108;-79
2021/05/13 08:25:33;;;;;;;6.13;4.50;;;;;;;20.76;41.37;98164.38;5111880;28;20499;-80
2021/05/13 08:27:58;;;;;;;8.98;3.88;;;;;;;20.79;40.72;98166.38;5112452;28;20098;-80
2021/05/13 08:30:24;;;;;;;5.40;3.53;;;;;;;20.77;41.74;98169.44;5111794;28;20019;-80
2021/05/13 08:32:49;;;;;;;4.57;3.30;;;;;;;20.78;41.23;98162.09;5111874;28;20054;-80
2021/05/13 08:35:15;;;;;;;4.07;2.83;;;;;;;20.86;41.29;98165.69;5111754;28;20047;-79
2021/05/13 08:37:40;;;;;;;3.58;3.28;;;;;;;20.91;40.91;98168.88;5113228;28;20062;-80
2021/05/13 08:40:07;;;;;;;5.65;3.42;;;;;;;20.96;40.47;98162.34;5111417;28;20036;-80
2021/05/13 08:42:35;;;;;;;7.38;3.17;;;;;;;20.95;40.78;98167.00;5111772;28;20028;-79
2021/05/13 08:45:01;;;;;;;;;;;;;;;21.05;40.70;98162.09;5112252;28;20023;-80
2021/05/13 08:47:26;;;;;;;3.50;3.20;;;;;;;21.09;40.74;98157.47;5111412;28;19960;-80
2021/05/13 08:49:52;;;;;;;5.75;2.80;;;;;;;21.15;40.64;98164.16;5111545;28;20027;-80
2021/05/13 08:52:19;;;;;;;3.50;2.53;;;;;;;21.26;41.32;98159.66;5111187;28;20114;-80
2021/05/13 08:54:55;;;;;;;4.57;2.63;;;;;;;21.35;41.01;98166.72;5111690;28;20091;-80
2021/05/13 08:57:22;;;;;;;4.25;2.30;;;;;;;21.39;42.11;98156.69;5111255;28;20126;-80
2021/05/13 08:59:48;;;;;;;4.95;2.97;;;;;;;21.38;40.83;98158.63;5111350;28;20011;-80
2021/05/13 09:02:15;;;;;;;3.95;2.80;;;;;;;21.38;40.47;98150.44;5111215;28;20058;-80
2021/05/13 09:05:00;;;;;;;6.78;2.83;;;;;;;21.40;40.15;98150.09;5111027;28;20106;-80
2021/05/13 09:07:28;;;;;;;4.88;2.75;;;;;;;21.42;40.45;98148.56;5110906;28;20118;-79
2021/05/13 09:09:57;;;;;;;3.20;2.72;;;;;;;21.51;41.35;98142.84;5111089;28;20027;-80
2021/05/13 09:12:23;;;;;;;;;;;;;;;21.57;41.93;98133.22;5111217;28;20527;-80
2021/05/13 09:14:57;;;;;;;5.20;2.72;;;;;;;21.62;40.80;98132.13;5111274;28;19927;-80
2021/05/13 09:17:27;;;;;;;3.47;2.97;;;;;;;21.59;40.15;98130.94;5112265;28;20031;-79
2021/05/13 09:19:54;;;;;;;2.75;2.40;;;;;;;21.61;40.51;98124.34;5111014;28;20028;-81
2021/05/13 09:22:23;;;;;;;3.78;2.90;;;;;;;21.61;40.73;98122.38;5110859;28;20523;-80
2021/05/13 09:25:07;;;;;;;4.03;3.25;;;;;;;21.62;40.07;98120.44;5110990;28;20474;-81
2021/05/13 09:27:34;;;;;;;4.60;2.58;;;;;;;21.70;40.42;98120.16;5110947;28;20110;-81
2021/05/13 09:30:00;;;;;;;15.32;9.20;;;;;;;21.83;40.55;98134.28;5110814;28;20023;-81
2021/05/13 09:32:26;;;;;;;10.95;6.30;;;;;;;21.93;40.84;98132.03;5110654;28;20040;-82
2021/05/13 09:34:51;;;;;;;3.78;3.25;;;;;;;21.95;39.11;98121.53;5110742;28;20035;-81
2021/05/13 09:37:17;;;;;;;3.97;2.63;;;;;;;21.99;39.35;98120.41;5110347;28;20019;-81
2021/05/13 09:39:48;;;;;;;6.28;2.90;;;;;;;22.07;38.87;98132.94;5110083;28;20462;-81
2021/05/13 09:42:18;;;;;;;6.80;3.00;;;;;;;22.11;38.56;98122.09;5110623;28;20035;-82
2021/05/13 09:44:46;;;;;;;3.03;2.75;;;;;;;22.12;39.82;98122.84;5110822;28;20034;-82
2021/05/13 09:47:19;;;;;;;4.82;3.80;;;;;;;22.14;39.34;98126.78;5110002;28;20027;-81
2021/05/13 09:50:05;;;;;;;6.75;3.22;;;;;;;22.20;39.41;98128.00;5110646;28;20023;-82
2021/05/13 09:52:52;;;;;;;6.53;3.17;;;;;;;22.27;39.05;98124.53;5110147;28;20382;-81
2021/05/13 09:55:37;;;;;;;7.95;3.42;;;;;;;22.30;38.93;98121.09;5110395;28;20470;-82
2021/05/13 09:58:10;;;;;;;5.03;2.40;;;;;;;22.32;38.62;98121.47;5109848;28;20084;-82
2021/05/13 10:00:44;;;;;;;3.20;2.95;;;;;;;22.39;38.20;98118.84;5110467;28;20493;-82
2021/05/13 10:03:13;;;;;;;3.33;2.45;;;;;;;22.41;38.87;98112.22;5110095;28;20125;-81
2021/05/13 10:05:44;;;;;;;3.95;2.80;;;;;;;22.45;39.16;98110.31;5110243;28;20474;-81
2021/05/13 10:08:10;;;;;;;2.75;2.55;;;;;;;22.45;38.87;98104.84;5110067;28;20055;-81
2021/05/13 10:10:38;;;;;;;5.40;2.47;;;;;;;22.50;39.33;98107.25;5110387;28;20027;-81
2021/05/13 10:13:06;;;;;;;4.65;2.60;;;;;;;22.55;39.24;98099.47;5110279;28;20058;-81
2021/05/13 10:15:33;;;;;;;3.22;2.03;;;;;;;22.68;38.93;98104.63;5110177;28;20474;-80
2021/05/13 10:18:02;;;;;;;2.70;2.50;;;;;;;22.77;38.48;98102.34;5110040;28;20467;-81
2021/05/13 10:20:30;;;;;;;6.50;2.75;;;;;;;22.77;38.43;98099.63;5109936;28;20055;-80
2021/05/13 10:22:56;;;;;;;2.60;2.40;;;;;;;22.78;38.53;98097.69;5110108;28;20110;-80
2021/05/13 10:25:30;;;;;;;3.88;2.53;;;;;;;22.73;38.41;98087.91;5109681;28;20111;-80
2021/05/13 10:28:02;;;;;;;3.05;2.65;;;;;;;22.72;38.91;98080.91;5111572;28;20028;-80
2021/05/13 10:30:33;;;;;;;3.25;2.10;;;;;;;22.76;39.14;98078.97;5109672;28;20027;-80
2021/05/13 10:33:10;;;;;;;3.60;2.42;;;;;;;22.79;38.20;98075.50;5110923;28;20084;-80
2021/05/13 10:35:37;;;;;;;4.22;2.97;;;;;;;22.79;38.46;98070.03;5109937;28;20024;-80
2021/05/13 10:38:07;;;;;;;3.78;2.25;;;;;;;22.85;37.63;98076.69;5109897;28;20019;-79
2021/05/13 10:43:26;;;;;;;1.90;1.73;;;;;;;22.81;37.51;98067.72;5111121;28;20042;-81
2021/05/13 10:45:51;;;;;;;1.83;1.65;;;;;;;22.79;37.77;98071.97;5109866;28;20115;-78
2021/05/13 10:48:22;;;;;;;1.90;1.73;;;;;;;22.75;37.46;98052.09;5109589;28;20027;-79
2021/05/13 10:51:02;;;;;;;5.15;2.35;;;;;;;22.76;37.37;98051.72;5112758;28;20016;-79
2021/05/13 10:53:33;;;;;;;3.00;1.67;;;;;;;22.78;37.51;98051.34;5113469;28;20019;-80
2021/05/13 10:56:24;;;;;;;4.22;2.15;;;;;;;22.81;37.87;98040.47;5113644;28;20110;-80
2021/05/13 10:59:07;;;;;;;2.15;1.95;;;;;;;22.80;37.59;98046.28;5113430;28;20049;-81
2021/05/13 11:01:53;;;;;;;2.03;1.83;;;;;;;22.81;38.43;98039.66;5113268;28;20381;-80
2021/05/13 11:06:58;;;;;;;3.22;2.53;;;;;;;22.86;38.08;98042.81;5114808;27;20024;-79
2021/05/13 11:12:15;;;;;;;3.67;2.50;;;;;;;22.75;38.63;98031.06;5114801;28;20057;-81
2021/05/13 11:14:59;;;;;;;5.78;2.13;;;;;;;22.80;38.43;98035.38;5113823;28;20026;-79
2021/05/13 11:17:45;;;;;;;2.20;1.83;;;;;;;22.81;37.57;98029.56;5112994;28;20360;-81
2021/05/13 11:20:29;;;;;;;2.67;1.85;;;;;;;22.86;37.48;98031.91;5112976;28;20027;-80
2021/05/13 11:23:19;;;;;;;4.93;1.80;;;;;;;22.93;37.42;98031.16;5113037;28;20477;-80
2021/05/13 11:25:50;;;;;;;2.03;1.80;;;;;;;22.98;37.24;98019.09;5112755;28;20030;-80
2021/05/13 11:28:34;;;;;;;1.75;1.50;;;;;;;23.07;37.51;98018.72;5112693;28;20027;-80
2021/05/13 11:31:09;;;;;;;4.85;1.70;;;;;;;23.10;37.70;98017.97;5112897;28;20016;-80
2021/05/13 11:33:57;;;;;;;2.17;2.03;;;;;;;23.16;37.58;98019.16;5112405;28;20043;-79
2021/05/13 11:36:27;;;;;;;3.03;2.20;;;;;;;23.21;37.76;98012.59;5112600;28;20043;-80
2021/05/13 11:38:55;;;;;;;3.78;2.05;;;;;;;23.17;37.56;97996.97;5113781;28;20058;-79
2021/05/13 11:41:22;;;;;;;3.45;2.42;;;;;;;23.15;37.47;97988.38;5112474;28;20493;-79
2021/05/13 11:43:48;;;;;;;2.40;1.98;;;;;;;23.16;37.46;98000.06;5113703;28;20554;-79
2021/05/13 11:46:20;;;;;;;2.55;1.98;;;;;;;23.22;37.59;97984.13;5112411;28;20019;-79
2021/05/13 11:48:47;;;;;;;2.38;2.05;;;;;;;23.29;37.78;97981.41;5112673;28;20023;-79
2021/05/13 11:51:15;;;;;;;3.47;2.08;;;;;;;23.35;37.18;97988.03;5112649;28;20023;-80